createdAt,value
2023-03-07T00:01:51.880Z,-2.83
2023-03-07T00:06:56.128Z,-2.91
2023-03-07T00:11:58.803Z,-2.91
2023-03-07T00:17:01.669Z,-2.96
2023-03-07T00:22:05.048Z,-2.97
2023-03-07T00:27:09.066Z,-3.05
2023-03-07T00:32:11.736Z,-2.71
2023-03-07T00:37:15.634Z,-2.72
2023-03-07T00:42:18.444Z,-2.59
2023-03-07T00:47:21.207Z,-2.52
2023-03-07T00:52:23.953Z,-2.61
2023-03-07T00:57:26.811Z,-2.67
2023-03-07T01:02:29.467Z,-2.71
2023-03-07T01:07:32.172Z,-2.79
2023-03-07T01:12:35.289Z,-3.10
2023-03-07T01:17:38.385Z,-3.04
2023-03-07T01:22:42.370Z,-3.00
2023-03-07T01:27:45.045Z,-3.06
2023-03-07T01:32:49.335Z,-2.83
2023-03-07T01:37:53.450Z,-2.78
2023-03-07T01:43:34.585Z,-2.67
2023-03-07T01:48:42.214Z,-2.70
2023-03-07T01:53:45.377Z,-2.68
2023-03-07T01:58:49.425Z,-2.56
2023-03-07T02:03:58.322Z,-2.47
2023-03-07T02:09:01.286Z,-2.31
2023-03-07T02:14:04.037Z,-2.01
2023-03-07T02:19:25.635Z,-2.01
2023-03-07T02:24:43.109Z,-1.97
2023-03-07T02:29:45.846Z,-2.05
2023-03-07T02:34:49.350Z,-2.28
2023-03-07T02:39:57.134Z,-2.13
2023-03-07T02:45:01.825Z,-2.04
2023-03-07T02:50:08.885Z,-2.04
2023-03-07T02:55:14.453Z,-1.99
2023-03-07T03:00:23.806Z,-2.05
2023-03-07T03:05:26.723Z,-1.90
2023-03-07T03:10:30.462Z,-1.71
2023-03-07T03:15:35.296Z,-1.37
2023-03-07T03:20:44.935Z,-0.79
2023-03-07T03:25:58.345Z,-0.56
2023-03-07T03:31:07.533Z,-1.01
2023-03-07T03:36:13.869Z,-1.37
2023-03-07T03:41:17.318Z,-1.43
2023-03-07T03:46:21.914Z,-1.56
2023-03-07T03:51:25.282Z,-1.52
2023-03-07T03:56:30.187Z,-1.36
2023-03-07T04:01:33.883Z,-0.80
2023-03-07T04:06:36.857Z,-0.01
2023-03-07T04:11:39.891Z,0.15
2023-03-07T04:16:43.071Z,0.16
2023-03-07T04:21:45.951Z,0.31
2023-03-07T04:26:51.642Z,0.34
2023-03-07T04:31:54.510Z,0.37
2023-03-07T04:36:57.736Z,0.32
2023-03-07T04:42:00.559Z,0.32
2023-03-07T04:47:09.402Z,0.62
2023-03-07T04:52:13.983Z,0.31
2023-03-07T04:57:17.077Z,-0.10
2023-03-07T05:02:20.054Z,-0.19
2023-03-07T05:07:24.967Z,0.44
2023-03-07T05:12:27.800Z,0.47
2023-03-07T05:17:31.822Z,0.59
2023-03-07T05:22:34.553Z,0.84
2023-03-07T05:27:37.310Z,0.72
2023-03-07T05:32:40.757Z,0.92
2023-03-07T05:37:45.178Z,1.31
2023-03-07T05:42:47.971Z,1.46
2023-03-07T05:47:51.868Z,1.76
2023-03-07T05:52:54.704Z,2.05
2023-03-07T05:57:59.743Z,2.06
2023-03-07T06:03:05.521Z,1.91
2023-03-07T06:08:18.353Z,2.33
2023-03-07T06:13:24.895Z,2.65
2023-03-07T06:18:27.827Z,2.80
2023-03-07T06:23:32.350Z,2.95
2023-03-07T06:28:36.286Z,2.54
2023-03-07T06:33:39.433Z,2.79
2023-03-07T06:38:42.651Z,2.98
2023-03-07T06:43:45.497Z,3.38
2023-03-07T06:48:48.640Z,3.26
2023-03-07T06:53:53.801Z,3.16
2023-03-07T06:58:56.556Z,2.15
2023-03-07T07:04:01.143Z,1.62
2023-03-07T07:09:05.986Z,1.47
2023-03-07T07:14:12.393Z,1.52
2023-03-07T07:19:16.955Z,1.70
2023-03-07T07:24:20.096Z,1.76
2023-03-07T07:29:23.668Z,1.76
2023-03-07T07:34:27.458Z,1.82
2023-03-07T07:39:30.401Z,1.48
2023-03-07T07:44:33.286Z,1.74
2023-03-07T07:49:40.906Z,1.82
2023-03-07T07:54:43.765Z,1.98
2023-03-07T07:59:46.782Z,2.07
2023-03-07T08:04:49.716Z,1.97
2023-03-07T08:09:52.486Z,2.11
2023-03-07T08:14:55.177Z,1.90
2023-03-07T08:20:01.917Z,2.19
2023-03-07T08:25:11.343Z,2.03
2023-03-07T08:30:15.762Z,2.05
2023-03-07T08:35:19.137Z,1.94
2023-03-07T08:40:22.975Z,1.90
2023-03-07T08:45:25.719Z,1.84
2023-03-07T08:50:29.258Z,1.81
2023-03-07T08:55:35.754Z,1.87
2023-03-07T09:00:39.211Z,1.88
2023-03-07T09:05:41.873Z,1.77
2023-03-07T09:10:44.709Z,1.48
2023-03-07T09:15:47.511Z,1.04
2023-03-07T09:20:50.202Z,0.79
2023-03-07T09:25:52.915Z,0.48
2023-03-07T09:30:55.582Z,0.18
2023-03-07T09:35:58.375Z,0.44
2023-03-07T09:41:19.571Z,0.09
2023-03-07T09:46:31.113Z,-0.11
2023-03-07T09:51:33.892Z,-0.06
2023-03-07T09:56:41.600Z,-0.02
2023-03-07T10:01:45.153Z,0.06
2023-03-07T10:06:53.576Z,-0.02
2023-03-07T10:12:11.878Z,-0.05
2023-03-07T10:17:42.840Z,-0.19
2023-03-07T10:22:54.466Z,-0.42
2023-03-07T10:28:15.945Z,-0.36
2023-03-07T10:33:20.508Z,-0.14
2023-03-07T10:38:31.270Z,-0.08
2023-03-07T10:43:35.209Z,0.05
2023-03-07T10:48:40.556Z,0.07
2023-03-07T10:53:43.436Z,-0.11
2023-03-07T10:59:05.775Z,-0.43
2023-03-07T11:04:24.089Z,-0.61
2023-03-07T11:09:34.647Z,-0.80
2023-03-07T11:14:47.960Z,-1.13
2023-03-07T11:19:55.860Z,-1.10
2023-03-07T11:24:58.612Z,-1.15
2023-03-07T11:30:39.021Z,-1.20
2023-03-07T11:35:55.979Z,-1.46
2023-03-07T11:41:20.583Z,-1.84
2023-03-07T11:46:53.226Z,-2.14
2023-03-07T11:52:17.927Z,-2.23
2023-03-07T11:57:58.953Z,-2.29
2023-03-07T12:03:16.823Z,-2.54
2023-03-07T12:08:38.161Z,-2.83
2023-03-07T12:13:47.079Z,-3.09
2023-03-07T12:18:58.418Z,-3.32
2023-03-07T12:24:05.566Z,-3.58
2023-03-07T12:29:38.166Z,-3.48
2023-03-07T12:35:17.054Z,-3.20
2023-03-07T12:40:49.382Z,-3.34
2023-03-07T12:46:02.715Z,-3.55
2023-03-07T12:51:07.718Z,-3.62
2023-03-07T12:56:20.278Z,-3.74
2023-03-07T13:01:34.661Z,-3.88
2023-03-07T13:06:45.060Z,-4.04
2023-03-07T13:12:24.255Z,-4.04
2023-03-07T13:17:35.678Z,-4.19
2023-03-07T13:22:38.341Z,-4.36
2023-03-07T13:27:41.007Z,-4.43
2023-03-07T13:32:50.288Z,-4.52
2023-03-07T13:38:04.151Z,-4.61
2023-03-07T13:43:28.248Z,-4.67
2023-03-07T13:48:31.254Z,-4.85
2023-03-07T13:53:33.935Z,-5.08
2023-03-07T13:58:40.732Z,-5.35
2023-03-07T14:03:48.423Z,-5.44
2023-03-07T14:08:51.765Z,-5.50
2023-03-07T14:13:54.734Z,-5.67
2023-03-07T14:19:03.732Z,-5.64
2023-03-07T14:24:26.771Z,-5.42
2023-03-07T14:29:31.365Z,-5.20
2023-03-07T14:34:39.853Z,-5.24
2023-03-07T14:40:11.824Z,-5.23
2023-03-07T14:45:36.660Z,-5.25
2023-03-07T14:50:44.445Z,-5.45
2023-03-07T14:55:49.651Z,-5.27
2023-03-07T15:01:07.608Z,-5.16
2023-03-07T15:06:20.854Z,-4.93
2023-03-07T15:11:45.529Z,-4.98
2023-03-07T15:16:54.622Z,-4.91
2023-03-07T15:22:00.204Z,-4.93
2023-03-07T15:27:04.844Z,-4.97
2023-03-07T15:32:25.461Z,-5.04
2023-03-07T15:37:31.745Z,-5.12
2023-03-07T15:42:48.512Z,-5.22
2023-03-07T15:47:52.231Z,-5.21
2023-03-07T15:53:09.471Z,-5.08
2023-03-07T15:58:17.260Z,-4.95
2023-03-07T16:03:29.826Z,-4.86
2023-03-07T16:08:32.641Z,-4.80
2023-03-07T16:13:44.502Z,-4.81
2023-03-07T16:18:47.569Z,-4.80
2023-03-07T16:23:51.245Z,-4.95
2023-03-07T16:28:54.534Z,-4.85
2023-03-07T16:33:58.170Z,-5.04
2023-03-07T16:39:00.917Z,-5.00
2023-03-07T16:44:03.735Z,-5.08
2023-03-07T16:49:06.570Z,-5.18
2023-03-07T16:54:09.240Z,-5.21
2023-03-07T16:59:16.508Z,-5.26
2023-03-07T17:04:19.151Z,-5.30
2023-03-07T17:09:22.006Z,-5.33
2023-03-07T17:14:25.015Z,-5.34
2023-03-07T17:19:30.130Z,-5.28
2023-03-07T17:24:32.749Z,-5.34
2023-03-07T17:29:44.317Z,-5.24
2023-03-07T17:34:47.242Z,-5.16
2023-03-07T17:39:50.012Z,-5.08
2023-03-07T17:44:52.819Z,-5.00
2023-03-07T17:49:56.502Z,-4.91
2023-03-07T17:54:59.561Z,-4.84
2023-03-07T18:00:02.215Z,-4.85
2023-03-07T18:05:14.981Z,-4.80
2023-03-07T18:10:18.001Z,-4.80
2023-03-07T18:15:22.393Z,-4.83
2023-03-07T18:20:25.795Z,-4.93
2023-03-07T18:25:28.557Z,-4.87
2023-03-07T18:30:31.291Z,-4.83
2023-03-07T18:35:37.256Z,-4.82
2023-03-07T18:40:39.907Z,-4.77
2023-03-07T18:45:44.062Z,-4.62
2023-03-07T18:50:59.561Z,-4.54
2023-03-07T18:56:07.304Z,-4.46
2023-03-07T19:01:17.383Z,-4.42
2023-03-07T19:06:22.147Z,-4.36
2023-03-07T19:11:24.840Z,-4.29
2023-03-07T19:16:28.666Z,-4.25
2023-03-07T19:21:31.579Z,-4.24
2023-03-07T19:26:34.440Z,-4.22
2023-03-07T19:31:37.222Z,-4.29
2023-03-07T19:36:41.839Z,-4.39
2023-03-07T19:41:48.206Z,-4.46
2023-03-07T19:46:51.123Z,-4.52
2023-03-07T19:51:53.886Z,-4.60
2023-03-07T19:56:56.610Z,-4.61
2023-03-07T20:01:59.252Z,-4.69
2023-03-07T20:07:02.017Z,-4.68
2023-03-07T20:12:05.165Z,-4.66
2023-03-07T20:17:07.820Z,-4.72
2023-03-07T20:22:10.477Z,-4.77
2023-03-07T20:27:14.150Z,-4.74
2023-03-07T20:32:17.289Z,-4.73
2023-03-07T20:37:20.334Z,-4.65
2023-03-07T20:42:23.110Z,-4.62
2023-03-07T20:47:25.852Z,-4.59
2023-03-07T20:52:28.662Z,-4.63
2023-03-07T20:57:31.468Z,-4.70
2023-03-07T21:02:34.165Z,-4.66
2023-03-07T21:07:36.882Z,-4.62
2023-03-07T21:12:39.587Z,-4.63
2023-03-07T21:17:42.354Z,-4.61
2023-03-07T21:22:45.809Z,-4.57
2023-03-07T21:27:48.460Z,-4.54
2023-03-07T21:32:51.076Z,-4.45
2023-03-07T21:37:53.758Z,-4.34
2023-03-07T21:42:56.659Z,-4.32
2023-03-07T21:47:59.339Z,-4.28
2023-03-07T21:53:02.019Z,-4.43
2023-03-07T21:58:05.453Z,-4.26
2023-03-07T22:03:08.159Z,-4.19
2023-03-07T22:08:11.652Z,-4.15
2023-03-07T22:13:14.270Z,-4.22
2023-03-07T22:18:17.954Z,-4.17
2023-03-07T22:23:20.560Z,-4.11
2023-03-07T22:28:23.397Z,-4.13
2023-03-07T22:33:26.064Z,-4.21
2023-03-07T22:38:29.484Z,-4.31
2023-03-07T22:43:36.529Z,-4.36
2023-03-07T22:48:39.329Z,-4.35
2023-03-07T22:53:42.194Z,-4.39
2023-03-07T22:58:45.417Z,-4.39
2023-03-07T23:03:49.797Z,-4.29
2023-03-07T23:08:53.411Z,-4.31
2023-03-07T23:13:56.342Z,-4.31
2023-03-07T23:18:59.900Z,-4.25
2023-03-07T23:24:04.083Z,-4.20
2023-03-07T23:29:10.269Z,-4.19
2023-03-07T23:34:18.512Z,-4.20
2023-03-07T23:39:21.331Z,-4.23
2023-03-07T23:44:24.054Z,-4.22
2023-03-07T23:49:26.641Z,-4.20
2023-03-07T23:54:29.282Z,-4.19
2023-03-07T23:59:31.935Z,-4.15
